Time;durP1;ratioP1;P1;durP2;ratioP2;P2;SDS_P1;SDS_P2;PMS_P1;PMS_P2;Temp;Humidity;BMP_temperature;BMP_pressure;BME280_temperature;BME280_humidity;BME280_pressure;Samples;Min_cycle;Max_cycle;Signal;HPM_P1;HPM_P2
2024/04/05 00:00:50;;;;;;;2.33;1.25;;;;;;;;;;5108332;28;20255;-94
2024/04/05 00:03:56;;;;;;;4.35;1.15;;;;;;;;;;5108538;28;20266;-92
2024/04/05 00:07:01;;;;;;;4.65;1.35;;;;;;;;;;5109193;28;20209;-93
2024/04/05 00:10:07;;;;;;;7.93;1.92;;;;;;;;;;5107462;28;20270;-91
2024/04/05 00:13:11;;;;;;;8.48;2.45;;;;;;;;;;5108709;28;20274;-94
2024/04/05 00:16:19;;;;;;;9.07;2.53;;;;;;;;;;5108054;28;20181;-94
2024/04/05 00:19:23;;;;;;;4.18;2.17;;;;;;;;;;5107081;28;20194;-93
2024/04/05 00:22:28;;;;;;;5.03;1.88;;;;;;;;;;5105397;28;20186;-93
2024/04/05 00:25:38;;;;;;;4.22;1.80;;;;;;;;;;5107901;28;20182;-93
2024/04/05 00:28:43;;;;;;;8.27;1.90;;;;;;;;;;5105276;28;20255;-92
2024/04/05 00:31:49;;;;;;;4.80;1.80;;;;;;;;;;5105381;28;20193;-93
2024/04/05 00:34:54;;;;;;;7.15;3.20;;;;;;;;;;5106734;28;20186;-94
2024/04/05 00:37:59;;;;;;;3.15;1.50;;;;;;;;;;5106450;28;20194;-93
2024/04/05 00:41:05;;;;;;;3.45;1.75;;;;;;;;;;5107623;28;20166;-92
2024/04/05 00:44:10;;;;;;;8.02;2.53;;;;;;;;;;5107668;28;20213;-94
2024/04/05 00:47:18;;;;;;;3.15;1.58;;;;;;;;;;5126698;28;20298;-94
2024/04/05 00:50:23;;;;;;;3.03;1.50;;;;;;;;;;5127033;28;20204;-93
2024/04/05 00:53:31;;;;;;;3.60;1.50;;;;;;;;;;5126272;28;20200;-93
2024/04/05 00:56:36;;;;;;;4.43;1.50;;;;;;;;;;5126711;28;20193;-92
2024/04/05 00:59:41;;;;;;;5.53;1.70;;;;;;;;;;5126808;28;20681;-93
2024/04/05 01:02:47;;;;;;;7.13;1.48;;;;;;;;;;5126497;28;20188;-93
2024/04/05 01:05:53;;;;;;;6.82;1.27;;;;;;;;;;5126000;28;20193;-93
2024/04/05 01:08:57;;;;;;;6.05;1.50;;;;;;;;;;5125024;28;20240;-93
2024/04/05 01:12:03;;;;;;;9.95;1.80;;;;;;;;;;5125440;28;20215;-91
2024/04/05 01:15:07;;;;;;;5.13;1.70;;;;;;;;;;5126966;28;20184;-94
2024/04/05 01:18:14;;;;;;;6.95;1.88;;;;;;;;;;5126866;28;20208;-93
2024/04/05 01:21:18;;;;;;;4.57;1.52;;;;;;;;;;5125502;28;20196;-92
2024/04/05 01:24:25;;;;;;;5.90;1.35;;;;;;;;;;5125966;28;20200;-93
2024/04/05 01:27:29;;;;;;;3.50;1.50;;;;;;;;;;5125431;28;20204;-91
2024/04/05 01:30:35;;;;;;;4.65;1.50;;;;;;;;;;5126496;28;20297;-93
2024/04/05 01:33:43;;;;;;;3.88;1.48;;;;;;;;;;5126561;28;20192;-93
2024/04/05 01:36:49;;;;;;;3.08;1.73;;;;;;;;;;5126089;28;20235;-95
2024/04/05 01:39:54;;;;;;;4.78;1.50;;;;;;;;;;5126486;28;20197;-94
2024/04/05 01:42:59;;;;;;;4.40;1.67;;;;;;;;;;5125905;27;20192;-92
2024/04/05 01:46:04;;;;;;;2.67;1.30;;;;;;;;;;5126699;28;20207;-93
2024/04/05 01:49:09;;;;;;;4.00;1.45;;;;;;;;;;5125754;28;20217;-93
2024/04/05 01:52:13;;;;;;;5.05;1.30;;;;;;;;;;5125376;28;20189;-93
2024/04/05 01:55:21;;;;;;;3.58;1.48;;;;;;;;;;5127377;28;20552;-93
2024/04/05 01:58:25;;;;;;;6.28;1.80;;;;;;;;;;5124832;28;20227;-93
2024/04/05 02:01:35;;;;;;;3.33;1.33;;;;;;;;;;5126100;28;20215;-91
2024/04/05 02:04:40;;;;;;;4.53;1.60;;;;;;;;;;5124386;28;20192;-93
2024/04/05 02:07:45;;;;;;;2.53;1.50;;;;;;;;;;5125265;28;20265;-92
2024/04/05 02:10:51;;;;;;;10.57;2.35;;;;;;;;;;5125402;28;20214;-92
2024/04/05 02:13:56;;;;;;;4.53;2.20;;;;;;;;;;5126408;28;20211;-93
2024/04/05 02:17:00;;;;;;;5.22;1.65;;;;;;;;;;5104435;28;20177;-92
2024/04/05 02:20:06;;;;;;;3.33;1.65;;;;;;;;;;5104661;28;20182;-93
2024/04/05 02:23:10;;;;;;;4.57;1.67;;;;;;;;;;5105677;28;20169;-91
2024/04/05 02:26:19;;;;;;;3.80;2.00;;;;;;;;;;5107353;28;20182;-93
2024/04/05 02:29:24;;;;;;;6.05;2.00;;;;;;;;;;5104779;28;20217;-92
2024/04/05 02:32:30;;;;;;;3.90;1.88;;;;;;;;;;5104060;28;20256;-93
2024/04/05 02:35:34;;;;;;;5.35;1.80;;;;;;;;;;5103895;28;20186;-91
2024/04/05 02:38:39;;;;;;;2.60;1.67;;;;;;;;;;5103758;28;20189;-92
2024/04/05 02:41:46;;;;;;;2.75;1.38;;;;;;;;;;5103759;28;20240;-92
2024/04/05 02:44:51;;;;;;;4.30;1.75;;;;;;;;;;5104049;28;20182;-93
2024/04/05 02:47:55;;;;;;;5.20;2.00;;;;;;;;;;5103054;28;20259;-93
2024/04/05 02:51:00;;;;;;;7.78;2.17;;;;;;;;;;5114831;28;20221;-93
2024/04/05 02:54:06;;;;;;;4.85;2.00;;;;;;;;;;5110682;28;20213;-92
2024/04/05 02:57:12;;;;;;;5.07;2.42;;;;;;;;;;5127154;28;20181;-94
2024/04/05 03:00:17;;;;;;;5.85;2.10;;;;;;;;;;5127621;28;20188;-92
2024/04/05 03:03:21;;;;;;;6.40;2.13;;;;;;;;;;5127991;28;20255;-92
2024/04/05 03:06:27;;;;;;;6.70;2.47;;;;;;;;;;5130653;28;20189;-94
2024/04/05 03:09:32;;;;;;;6.28;2.88;;;;;;;;;;5128424;28;20707;-93
2024/04/05 03:12:43;;;;;;;6.80;2.55;;;;;;;;;;5127045;28;20201;-92
2024/04/05 03:15:48;;;;;;;3.25;2.22;;;;;;;;;;5128077;28;20186;-92
2024/04/05 03:18:53;;;;;;;9.35;2.60;;;;;;;;;;5127375;28;20250;-92
2024/04/05 03:21:59;;;;;;;5.88;2.97;;;;;;;;;;5128095;28;20176;-92
2024/04/05 03:25:03;;;;;;;8.13;3.10;;;;;;;;;;5128151;28;20192;-93
2024/04/05 03:28:09;;;;;;;6.93;3.53;;;;;;;;;;5127901;28;20231;-92
2024/04/05 03:31:14;;;;;;;7.53;3.03;;;;;;;;;;5127499;28;20177;-92
2024/04/05 03:34:19;;;;;;;5.63;2.88;;;;;;;;;;5127192;28;20192;-92
2024/04/05 03:37:24;;;;;;;8.88;3.70;;;;;;;;;;5128712;28;20189;-93
2024/04/05 03:40:30;;;;;;;7.32;3.17;;;;;;;;;;5128813;28;20631;-93
2024/04/05 03:43:36;;;;;;;4.93;3.05;;;;;;;;;;5127730;28;20204;-93
2024/04/05 03:46:42;;;;;;;8.25;3.10;;;;;;;;;;5127912;28;20223;-92
2024/04/05 03:49:48;;;;;;;6.28;3.50;;;;;;;;;;5128925;28;20221;-91
2024/04/05 03:52:52;;;;;;;8.70;3.38;;;;;;;;;;5128299;28;20189;-92
2024/04/05 03:55:57;;;;;;;9.00;3.42;;;;;;;;;;5126778;28;20185;-92
2024/04/05 03:59:03;;;;;;;7.63;2.65;;;;;;;;;;5126719;28;20192;-93
2024/04/05 04:02:11;;;;;;;8.23;2.85;;;;;;;;;;5127898;28;20297;-93
2024/04/05 04:05:16;;;;;;;3.75;2.20;;;;;;;;;;5128271;28;20188;-94
2024/04/05 04:08:21;;;;;;;7.47;2.78;;;;;;;;;;5126836;28;20228;-93
2024/04/05 04:11:26;;;;;;;7.15;3.20;;;;;;;;;;5127856;28;20181;-94
2024/04/05 04:14:33;;;;;;;5.40;2.92;;;;;;;;;;5127840;28;20176;-92
2024/04/05 04:17:37;;;;;;;5.43;2.50;;;;;;;;;;5125536;28;20191;-92
2024/04/05 04:20:43;;;;;;;9.77;3.03;;;;;;;;;;5127647;28;20173;-91
2024/04/05 04:23:48;;;;;;;7.85;4.20;;;;;;;;;;5126326;28;20189;-92
2024/04/05 04:26:56;;;;;;;4.47;2.88;;;;;;;;;;5126395;28;20176;-92
2024/04/05 04:30:04;;;;;;;11.93;2.95;;;;;;;;;;5128961;28;20235;-91
2024/04/05 04:33:10;;;;;;;7.95;3.90;;;;;;;;;;5125587;28;20216;-93
2024/04/05 04:36:14;;;;;;;8.82;3.50;;;;;;;;;;5127214;28;20256;-92
2024/04/05 04:39:19;;;;;;;10.27;3.35;;;;;;;;;;5128839;28;20189;-93
2024/04/05 04:42:24;;;;;;;7.30;3.55;;;;;;;;;;5127026;28;20676;-93
2024/04/05 04:45:31;;;;;;;9.65;4.72;;;;;;;;;;5126540;28;20181;-92
2024/04/05 04:48:35;;;;;;;12.02;3.97;;;;;;;;;;5128764;28;20217;-92
2024/04/05 04:51:40;;;;;;;12.75;4.40;;;;;;;;;;5126145;28;20251;-93
2024/04/05 04:54:45;;;;;;;10.52;3.95;;;;;;;;;;5125609;28;20227;-93
2024/04/05 04:57:50;;;;;;;9.05;3.70;;;;;;;;;;5125324;28;20193;-93
2024/04/05 05:00:57;;;;;;;8.15;3.72;;;;;;;;;;5125259;28;20200;-92
2024/04/05 05:04:02;;;;;;;8.23;3.65;;;;;;;;;;5128660;28;20177;-94
2024/04/05 05:07:06;;;;;;;7.97;4.18;;;;;;;;;;5125543;28;20205;-93
2024/04/05 05:10:11;;;;;;;7.60;3.85;;;;;;;;;;5124217;28;20184;-94
2024/04/05 05:13:15;;;;;;;9.70;4.05;;;;;;;;;;5125478;28;20185;-93
2024/04/05 05:16:24;;;;;;;7.40;3.47;;;;;;;;;;5124169;28;20190;-92
2024/04/05 05:19:29;;;;;;;5.60;3.33;;;;;;;;;;5127139;28;20201;-92
2024/04/05 05:22:34;;;;;;;8.52;3.75;;;;;;;;;;5125882;28;20200;-93
2024/04/05 05:25:38;;;;;;;14.27;5.13;;;;;;;;;;5105151;28;20178;-94
2024/04/05 05:28:45;;;;;;;9.65;3.80;;;;;;;;;;5104515;28;20209;-93
2024/04/05 05:31:53;;;;;;;9.00;4.00;;;;;;;;;;5102981;28;20216;-93
2024/04/05 05:34:58;;;;;;;6.45;3.40;;;;;;;;;;5105493;28;20190;-92
2024/04/05 05:38:02;;;;;;;11.50;3.92;;;;;;;;;;5103962;28;20542;-94
2024/04/05 05:41:08;;;;;;;8.77;4.03;;;;;;;;;;5104106;28;20213;-93
2024/04/05 05:44:12;;;;;;;7.30;3.80;;;;;;;;;;5105285;28;20193;-94
2024/04/05 05:47:19;;;;;;;8.18;3.63;;;;;;;;;;5104224;28;20254;-93
2024/04/05 05:50:24;;;;;;;12.30;4.28;;;;;;;;;;5104277;28;20243;-92
2024/04/05 05:53:29;;;;;;;13.43;4.53;;;;;;;;;;5108287;28;20277;-93
2024/04/05 05:56:33;;;;;;;6.93;3.80;;;;;;;;;;5123921;28;20197;-92
2024/04/05 05:59:38;;;;;;;9.43;4.50;;;;;;;;;;5124271;28;20208;-92
2024/04/05 06:02:46;;;;;;;11.02;4.60;;;;;;;;;;5125978;28;20245;-93
2024/04/05 06:05:50;;;;;;;11.60;4.75;;;;;;;;;;5126591;28;20235;-93
2024/04/05 06:08:56;;;;;;;6.47;3.60;;;;;;;;;;5126368;28;20247;-92
2024/04/05 06:12:00;;;;;;;10.15;4.07;;;;;;;;;;5126830;28;20299;-93
2024/04/05 06:15:06;;;;;;;8.50;3.92;;;;;;;;;;5124630;28;20212;-94
2024/04/05 06:18:11;;;;;;;9.32;3.65;;;;;;;;;;5123581;28;20173;-93
2024/04/05 06:21:16;;;;;;;8.35;4.07;;;;;;;;;;5124148;28;20181;-94
2024/04/05 06:24:20;;;;;;;10.05;4.32;;;;;;;;;;5124646;28;20651;-93
2024/04/05 06:27:26;;;;;;;9.75;5.55;;;;;;;;;;5123639;28;20227;-91
2024/04/05 06:30:31;;;;;;;10.13;5.07;;;;;;;;;;5128732;28;20185;-93
2024/04/05 06:33:37;;;;;;;10.35;5.18;;;;;;;;;;5131703;28;20173;-93
2024/04/05 06:36:41;;;;;;;13.57;6.00;;;;;;;;;;5131281;28;20181;-93
2024/04/05 06:39:47;;;;;;;8.98;5.10;;;;;;;;;;5131186;28;20260;-92
2024/04/05 06:42:52;;;;;;;11.77;5.40;;;;;;;;;;5131913;28;20193;-92
2024/04/05 06:45:56;;;;;;;10.40;4.63;;;;;;;;;;5107767;28;20264;-91
2024/04/05 06:49:03;;;;;;;10.35;4.85;;;;;;;;;;5119466;28;20321;-90
2024/04/05 06:52:08;;;;;;;8.02;4.40;;;;;;;;;;5132797;28;20205;-93
2024/04/05 06:55:19;;;;;;;9.30;4.35;;;;;;;;;;5132587;28;20228;-94
2024/04/05 06:58:23;;;;;;;8.93;4.03;;;;;;;;;;5131097;28;20200;-93
2024/04/05 07:01:29;;;;;;;12.88;4.38;;;;;;;;;;5130323;28;20177;-94
2024/04/05 07:08:05;;;;;;;12.00;4.20;;;;;;;;;;5110438;28;20256;-93
2024/04/05 07:11:10;;;;;;;7.38;3.80;;;;;;;;;;5113394;28;20186;-93
2024/04/05 07:14:17;;;;;;;7.03;3.40;;;;;;;;;;5123165;28;20181;-93
2024/04/05 07:17:22;;;;;;;7.15;3.40;;;;;;;;;;5124666;28;20178;-94
2024/04/05 07:20:29;;;;;;;8.07;3.20;;;;;;;;;;5122470;28;20205;-94
2024/04/05 07:23:35;;;;;;;8.30;4.57;;;;;;;;;;5110583;28;20181;-93
2024/04/05 07:26:39;;;;;;;8.60;4.00;;;;;;;;;;5123032;28;20189;-95
2024/04/05 07:29:46;;;;;;;7.20;3.88;;;;;;;;;;5128426;28;20204;-94
2024/04/05 07:32:53;;;;;;;6.10;3.70;;;;;;;;;;5112489;28;20198;-95
2024/04/05 07:36:03;;;;;;;12.43;3.55;;;;;;;;;;5113801;28;20260;-94
2024/04/05 07:39:09;;;;;;;7.43;3.70;;;;;;;;;;5112984;28;20182;-96
2024/04/05 07:42:13;;;;;;;8.93;3.97;;;;;;;;;;5132511;28;20208;-94
2024/04/05 07:45:19;;;;;;;8.65;3.80;;;;;;;;;;5133462;28;20232;-95
2024/04/05 07:48:25;;;;;;;7.88;3.35;;;;;;;;;;5132376;28;20226;-96
2024/04/05 07:51:33;;;;;;;8.95;3.03;;;;;;;;;;5112309;28;20272;-95
2024/04/05 07:54:37;;;;;;;6.22;3.20;;;;;;;;;;5109869;28;20190;-95
2024/04/05 07:57:43;;;;;;;5.60;3.30;;;;;;;;;;5110816;28;20218;-95
2024/04/05 08:00:47;;;;;;;6.63;3.05;;;;;;;;;;5108991;28;20291;-95
2024/04/05 08:03:54;;;;;;;9.68;3.20;;;;;;;;;;5111480;28;20236;-95
2024/04/05 08:07:00;;;;;;;6.72;3.13;;;;;;;;;;5131916;28;20200;-94
2024/04/05 08:10:07;;;;;;;8.55;3.28;;;;;;;;;;5116471;28;20227;-93
2024/04/05 08:13:11;;;;;;;6.15;2.75;;;;;;;;;;5125927;28;20197;-91
2024/04/05 08:16:17;;;;;;;4.47;2.40;;;;;;;;;;5126597;28;20280;-92
2024/04/05 08:19:21;;;;;;;5.75;3.00;;;;;;;;;;5126684;28;20201;-92
2024/04/05 08:22:29;;;;;;;7.85;2.53;;;;;;;;;;5114163;28;20189;-91
2024/04/05 08:25:33;;;;;;;6.95;2.50;;;;;;;;;;5104617;28;20179;-90
2024/04/05 08:28:38;;;;;;;3.88;2.13;;;;;;;;;;5104418;28;20190;-93
2024/04/05 08:31:42;;;;;;;9.18;2.40;;;;;;;;;;5105263;28;20183;-92
2024/04/05 08:34:48;;;;;;;6.22;2.28;;;;;;;;;;5121095;28;20237;-93
2024/04/05 08:38:00;;;;;;;6.03;1.90;;;;;;;;;;5124217;28;20277;-91
2024/04/05 08:44:27;;;;;;;39.92;21.17;;;;;;;;;;5131344;28;20201;-91
2024/04/05 08:47:32;;;;;;;6.45;2.30;;;;;;;;;;5131782;28;20180;-92
2024/04/05 08:50:39;;;;;;;2.92;1.75;;;;;;;;;;5118838;28;20223;-91
2024/04/05 08:53:45;;;;;;;9.77;1.85;;;;;;;;;;5126567;28;20180;-95
2024/04/05 08:56:52;;;;;;;4.13;1.45;;;;;;;;;;5122602;28;20211;-91
2024/04/05 08:59:56;;;;;;;6.32;1.60;;;;;;;;;;5123979;28;20601;-94
2024/04/05 09:03:02;;;;;;;6.03;1.33;;;;;;;;;;5117876;28;20219;-93
2024/04/05 09:06:08;;;;;;;10.50;1.65;;;;;;;;;;5124879;28;20201;-91
2024/04/05 09:09:25;;;;;;;7.05;1.33;;;;;;;;;;5124452;28;20215;-95
2024/04/05 09:12:33;;;;;;;2.10;1.20;;;;;;;;;;5126427;28;20193;-94
2024/04/05 09:15:38;;;;;;;7.18;1.50;;;;;;;;;;5129891;28;20192;-95
2024/04/05 09:18:43;;;;;;;2.47;1.30;;;;;;;;;;5133425;28;20192;-95
2024/04/05 09:21:47;;;;;;;6.32;1.30;;;;;;;;;;5132066;28;20261;-96
2024/04/05 09:28:29;;;;;;;3.55;1.20;;;;;;;;;;5133371;28;20189;-96
2024/04/05 09:31:35;;;;;;;4.40;1.20;;;;;;;;;;5131234;28;20182;-94
2024/04/05 09:38:03;;;;;;;5.75;1.52;;;;;;;;;;5110367;28;20185;-94
2024/04/05 09:41:13;;;;;;;3.40;1.33;;;;;;;;;;5109371;28;20193;-94
2024/04/05 09:44:18;;;;;;;5.07;1.25;;;;;;;;;;5112803;28;20285;-93
2024/04/05 09:47:23;;;;;;;9.70;1.98;;;;;;;;;;5109270;28;20197;-93
2024/04/05 09:50:30;;;;;;;3.22;1.20;;;;;;;;;;5108526;28;20186;-94
2024/04/05 09:53:36;;;;;;;4.88;1.13;;;;;;;;;;5119947;28;20205;-94
2024/04/05 09:56:47;;;;;;;8.90;1.90;;;;;;;;;;5128749;27;20181;-93
2024/04/05 09:59:53;;;;;;;4.45;1.17;;;;;;;;;;5129123;27;20220;-93
2024/04/05 10:03:00;;;;;;;2.70;1.10;;;;;;;;;;5129852;27;20177;-93
2024/04/05 10:06:14;;;;;;;3.75;1.33;;;;;;;;;;5130930;27;20265;-92
2024/04/05 10:09:26;;;;;;;4.93;1.50;;;;;;;;;;5129968;27;20555;-94
2024/04/05 10:12:33;;;;;;;3.88;0.88;;;;;;;;;;5130208;27;20188;-92
2024/04/05 10:15:38;;;;;;;3.60;1.38;;;;;;;;;;5130388;27;20173;-93
2024/04/05 10:18:43;;;;;;;2.70;1.10;;;;;;;;;;5127851;27;20212;-94
2024/04/05 10:21:47;;;;;;;4.22;0.90;;;;;;;;;;5129291;27;20186;-94
2024/04/05 10:24:55;;;;;;;6.10;1.15;;;;;;;;;;5128412;27;20189;-94
2024/04/05 10:28:13;;;;;;;3.42;1.13;;;;;;;;;;5128635;27;20173;-92
2024/04/05 10:31:18;;;;;;;6.78;1.05;;;;;;;;;;5126024;28;20209;-93
2024/04/05 10:34:23;;;;;;;6.90;1.10;;;;;;;;;;5128472;27;20173;-93
2024/04/05 10:37:32;;;;;;;3.83;1.17;;;;;;;;;;5127530;27;20185;-93
2024/04/05 10:40:39;;;;;;;4.28;1.55;;;;;;;;;;5134075;27;20223;-93
2024/04/05 10:43:45;;;;;;;3.47;0.98;;;;;;;;;;5128655;27;20215;-94
2024/04/05 10:46:50;;;;;;;2.53;1.00;;;;;;;;;;5115880;27;20260;-94
2024/04/05 10:49:59;;;;;;;3.67;1.00;;;;;;;;;;5128690;27;20189;-95
2024/04/05 10:56:25;;;;;;;5.15;1.23;;;;;;;;;;5128922;27;20204;-95
2024/04/05 10:59:44;;;;;;;4.88;2.03;;;;;;;;;;5127910;27;20224;-93
2024/04/05 11:02:51;;;;;;;5.63;0.93;;;;;;;;;;5128731;28;20254;-95
2024/04/05 11:09:33;;;;;;;3.15;1.10;;;;;;;;;;5131031;28;20192;-94
2024/04/05 11:12:38;;;;;;;4.03;1.30;;;;;;;;;;5128676;28;20260;-94
2024/04/05 11:15:43;;;;;;;3.67;1.00;;;;;;;;;;5130477;28;20670;-92
2024/04/05 11:18:50;;;;;;;3.55;1.30;;;;;;;;;;5120464;28;20179;-94
2024/04/05 11:22:12;;;;;;;2.40;0.98;;;;;;;;;;5132865;27;20303;-94
2024/04/05 11:25:23;;;;;;;2.92;1.08;;;;;;;;;;5131442;27;20231;-95
2024/04/05 11:28:30;;;;;;;3.05;1.10;;;;;;;;;;5134826;27;20173;-94
2024/04/05 11:31:35;;;;;;;2.58;0.73;;;;;;;;;;5134344;27;20265;-94
2024/04/05 11:34:45;;;;;;;4.10;1.23;;;;;;;;;;5135645;27;20193;-94
2024/04/05 11:37:51;;;;;;;7.60;1.30;;;;;;;;;;5132806;27;20646;-94
2024/04/05 11:40:57;;;;;;;7.07;1.95;;;;;;;;;;5133646;27;20269;-94
2024/04/05 11:44:02;;;;;;;2.92;1.00;;;;;;;;;;5132465;27;20200;-92
2024/04/05 11:47:08;;;;;;;4.57;1.00;;;;;;;;;;5133417;27;20655;-93
2024/04/05 11:50:14;;;;;;;3.08;1.10;;;;;;;;;;5131129;27;20184;-95
2024/04/05 11:53:20;;;;;;;3.17;1.00;;;;;;;;;;5131101;27;20204;-93
2024/04/05 11:56:29;;;;;;;2.65;1.00;;;;;;;;;;5132061;27;20237;-94
2024/04/05 11:59:36;;;;;;;2.55;0.85;;;;;;;;;;5132675;27;20216;-94
2024/04/05 12:02:41;;;;;;;3.95;1.02;;;;;;;;;;5133612;27;20188;-94
2024/04/05 12:05:47;;;;;;;5.47;1.48;;;;;;;;;;5133334;27;20299;-93
2024/04/05 12:08:53;;;;;;;5.05;1.15;;;;;;;;;;5130059;27;20200;-95
2024/04/05 12:11:58;;;;;;;2.92;1.40;;;;;;;;;;5131914;27;20192;-93
2024/04/05 12:15:15;;;;;;;6.38;1.10;;;;;;;;;;5132500;27;20176;-92
2024/04/05 12:18:20;;;;;;;2.72;1.00;;;;;;;;;;5131196;27;20264;-95
2024/04/05 12:21:28;;;;;;;2.45;1.20;;;;;;;;;;5131464;27;20216;-95
2024/04/05 12:24:34;;;;;;;6.53;1.35;;;;;;;;;;5133106;27;20251;-94
2024/04/05 12:31:21;;;;;;;3.28;1.10;;;;;;;;;;5133330;27;20199;-93
2024/04/05 12:34:29;;;;;;;3.05;1.00;;;;;;;;;;5132739;27;20315;-94
2024/04/05 12:37:37;;;;;;;2.47;0.95;;;;;;;;;;5132684;27;20185;-93
2024/04/05 12:40:46;;;;;;;2.17;1.10;;;;;;;;;;5131397;27;20215;-92
2024/04/05 12:43:51;;;;;;;2.88;1.23;;;;;;;;;;5133426;27;20222;-94
2024/04/05 12:50:16;;;;;;;2.50;1.10;;;;;;;;;;5133251;27;20187;-94
2024/04/05 12:53:37;;;;;;;3.78;1.38;;;;;;;;;;5132222;27;20191;-94
2024/04/05 12:56:45;;;;;;;3.25;1.20;;;;;;;;;;5133186;27;20172;-94
2024/04/05 12:59:50;;;;;;;8.05;1.30;;;;;;;;;;5122553;27;20200;-94
2024/04/05 13:02:58;;;;;;;2.42;1.25;;;;;;;;;;5133279;27;20207;-94
2024/04/05 13:06:07;;;;;;;4.82;1.75;;;;;;;;;;5131924;27;20195;-94
2024/04/05 13:09:13;;;;;;;4.38;1.15;;;;;;;;;;5133909;27;20243;-93
2024/04/05 13:12:33;;;;;;;2.72;1.10;;;;;;;;;;5132643;27;20189;-94
2024/04/05 13:15:41;;;;;;;5.47;1.63;;;;;;;;;;5120903;28;20193;-95
2024/04/05 13:18:47;;;;;;;4.15;1.17;;;;;;;;;;5132792;28;20196;-94
2024/04/05 13:21:54;;;;;;;3.83;1.30;;;;;;;;;;5129884;28;20193;-93
2024/04/05 13:25:00;;;;;;;3.97;1.00;;;;;;;;;;5130018;27;20207;-94
2024/04/05 13:28:04;;;;;;;4.32;1.33;;;;;;;;;;5131864;28;20551;-93
2024/04/05 13:34:40;;;;;;;2.63;1.05;;;;;;;;;;5133279;28;20185;-94
2024/04/05 13:37:44;;;;;;;3.03;1.00;;;;;;;;;;5130787;27;20189;-93
2024/04/05 13:40:50;;;;;;;5.13;1.58;;;;;;;;;;5130500;28;20204;-93
2024/04/05 13:43:54;;;;;;;2.60;1.10;;;;;;;;;;5131319;27;20177;-94
2024/04/05 13:47:02;;;;;;;2.65;1.00;;;;;;;;;;5128874;28;20181;-94
2024/04/05 13:50:07;;;;;;;6.75;1.65;;;;;;;;;;5129495;27;20231;-95
2024/04/05 13:53:13;;;;;;;1.45;0.80;;;;;;;;;;5131987;28;20191;-95
2024/04/05 13:56:17;;;;;;;4.80;1.25;;;;;;;;;;5131221;27;20179;-93
2024/04/05 13:59:23;;;;;;;3.90;1.30;;;;;;;;;;5129543;27;20186;-94
2024/04/05 14:02:31;;;;;;;3.03;1.10;;;;;;;;;;5130010;27;20274;-94
2024/04/05 14:05:39;;;;;;;2.95;1.00;;;;;;;;;;5130958;28;20233;-94
2024/04/05 14:08:45;;;;;;;2.28;1.00;;;;;;;;;;5131427;28;20212;-95
2024/04/05 14:11:55;;;;;;;3.65;1.08;;;;;;;;;;5132547;27;20180;-94
2024/04/05 14:15:01;;;;;;;4.22;1.02;;;;;;;;;;5130646;27;20263;-94
2024/04/05 14:18:11;;;;;;;7.43;1.10;;;;;;;;;;5131621;28;20199;-94
2024/04/05 14:21:16;;;;;;;4.10;1.00;;;;;;;;;;5129404;28;20216;-94
2024/04/05 14:24:24;;;;;;;4.30;1.25;;;;;;;;;;5129154;27;20180;-95
2024/04/05 14:27:29;;;;;;;5.03;1.02;;;;;;;;;;5130081;27;20168;-95
2024/04/05 14:30:39;;;;;;;3.17;1.10;;;;;;;;;;5131626;27;20252;-94
2024/04/05 14:37:25;;;;;;;3.55;1.33;;;;;;;;;;5130829;27;20185;-93
2024/04/05 14:40:29;;;;;;;2.83;1.10;;;;;;;;;;5130179;27;20207;-94
2024/04/05 14:43:37;;;;;;;2.13;1.00;;;;;;;;;;5129201;27;20246;-94
2024/04/05 14:46:41;;;;;;;6.43;2.85;;;;;;;;;;5131579;27;20177;-95
2024/04/05 14:49:48;;;;;;;3.90;1.15;;;;;;;;;;5130918;27;20236;-94
2024/04/05 14:53:02;;;;;;;2.60;1.00;;;;;;;;;;5134295;27;20175;-93
2024/04/05 14:56:07;;;;;;;4.15;1.25;;;;;;;;;;5135657;27;20180;-95
2024/04/05 14:59:17;;;;;;;1.80;0.88;;;;;;;;;;5134877;28;20192;-95
2024/04/05 15:02:23;;;;;;;2.25;1.00;;;;;;;;;;5135587;28;20184;-94
2024/04/05 15:05:27;;;;;;;4.68;1.50;;;;;;;;;;5133519;27;20669;-94
2024/04/05 15:08:48;;;;;;;3.90;0.98;;;;;;;;;;5134790;27;20222;-95
2024/04/05 15:11:55;;;;;;;20.92;11.93;;;;;;;;;;5135200;27;20315;-94
2024/04/05 15:15:00;;;;;;;5.75;2.70;;;;;;;;;;5132758;27;20215;-93
2024/04/05 15:18:07;;;;;;;5.95;1.08;;;;;;;;;;5134127;28;20216;-95
2024/04/05 15:21:12;;;;;;;3.90;1.08;;;;;;;;;;5132766;27;20243;-93
2024/04/05 15:24:17;;;;;;;6.25;1.10;;;;;;;;;;5133040;27;20655;-96
2024/04/05 15:31:00;;;;;;;5.45;1.20;;;;;;;;;;5133720;27;20192;-95
2024/04/05 15:34:15;;;;;;;5.70;1.85;;;;;;;;;;5132662;27;20256;-94
2024/04/05 15:37:21;;;;;;;2.97;0.98;;;;;;;;;;5133750;27;20184;-96
2024/04/05 15:40:32;;;;;;;3.60;1.20;;;;;;;;;;5134032;27;20200;-93
2024/04/05 15:43:40;;;;;;;8.77;2.88;;;;;;;;;;5132160;28;20189;-92
2024/04/05 15:46:47;;;;;;;3.97;1.30;;;;;;;;;;5136657;27;20169;-93
2024/04/05 15:53:15;;;;;;;4.40;1.17;;;;;;;;;;5136135;27;20180;-94
2024/04/05 15:56:21;;;;;;;4.30;1.38;;;;;;;;;;5135615;27;20185;-94
2024/04/05 22:01:44;;;;;;;6.80;2.65;;;;;;;;;;5263502;23;20249;-92
2024/04/05 22:04:48;;;;;;;9.43;3.15;;;;;;;;;;4875878;29;20194;-93
2024/04/05 22:07:53;;;;;;;9.85;3.40;;;;;;;;;;4893737;29;20702;-93
2024/04/05 22:10:59;;;;;;;6.65;2.42;;;;;;;;;;4894024;29;20229;-93
2024/04/05 22:14:04;;;;;;;12.30;2.70;;;;;;;;;;4891580;29;20223;-93
2024/04/05 22:17:11;;;;;;;4.85;2.28;;;;;;;;;;4892992;29;20284;-94
2024/04/05 22:20:16;;;;;;;7.78;2.78;;;;;;;;;;4892014;29;20196;-91
2024/04/05 22:23:21;;;;;;;9.15;2.42;;;;;;;;;;4892919;29;20193;-93
2024/04/05 22:26:26;;;;;;;6.20;2.95;;;;;;;;;;4893097;29;20255;-94
2024/04/05 22:29:31;;;;;;;11.50;4.22;;;;;;;;;;4893314;29;20231;-93
2024/04/05 22:32:37;;;;;;;10.35;4.65;;;;;;;;;;4880781;29;20209;-92
2024/04/05 22:35:46;;;;;;;11.35;3.70;;;;;;;;;;4891785;29;20305;-93
2024/04/05 22:38:55;;;;;;;8.85;3.15;;;;;;;;;;4882013;29;20238;-93
2024/04/05 22:41:59;;;;;;;6.35;2.47;;;;;;;;;;4892757;29;20217;-93
2024/04/05 22:45:05;;;;;;;7.50;2.95;;;;;;;;;;4871826;29;20221;-93
2024/04/05 22:48:12;;;;;;;6.40;2.70;;;;;;;;;;4881245;29;20247;-92
2024/04/05 22:51:16;;;;;;;6.63;2.70;;;;;;;;;;4881410;29;20212;-92
2024/04/05 22:54:22;;;;;;;7.10;2.50;;;;;;;;;;4880168;29;20198;-92
2024/04/05 22:57:26;;;;;;;6.25;2.47;;;;;;;;;;4892506;29;20210;-94
2024/04/05 23:00:31;;;;;;;6.97;2.70;;;;;;;;;;4891129;29;20234;-95
2024/04/05 23:03:37;;;;;;;8.57;2.58;;;;;;;;;;4871182;29;20213;-92
2024/04/05 23:06:42;;;;;;;8.10;2.70;;;;;;;;;;4892024;29;20202;-93
2024/04/05 23:09:46;;;;;;;6.43;2.90;;;;;;;;;;4881076;29;20194;-92
2024/04/05 23:12:52;;;;;;;9.88;3.03;;;;;;;;;;4896059;29;20190;-95
2024/04/05 23:15:57;;;;;;;6.28;2.45;;;;;;;;;;4895666;29;20507;-93
2024/04/05 23:19:03;;;;;;;6.63;2.38;;;;;;;;;;4885522;29;20205;-95
2024/04/05 23:22:08;;;;;;;8.02;2.83;;;;;;;;;;4895452;29;20275;-93
2024/04/05 23:25:15;;;;;;;4.65;2.35;;;;;;;;;;4884010;29;20215;-92
2024/04/05 23:28:21;;;;;;;7.15;2.50;;;;;;;;;;4872546;29;20181;-94
2024/04/05 23:31:26;;;;;;;10.13;2.55;;;;;;;;;;4884290;29;20201;-93
2024/04/05 23:34:33;;;;;;;9.25;3.17;;;;;;;;;;4895064;29;20275;-92
2024/04/05 23:37:38;;;;;;;3.65;2.40;;;;;;;;;;4894446;29;20205;-92
2024/04/05 23:40:42;;;;;;;6.70;2.63;;;;;;;;;;4883082;29;20645;-94
2024/04/05 23:43:48;;;;;;;6.85;2.65;;;;;;;;;;4871779;29;20182;-94
2024/04/05 23:46:52;;;;;;;6.60;2.50;;;;;;;;;;4893417;29;20201;-94
2024/04/05 23:49:59;;;;;;;6.93;2.25;;;;;;;;;;4895154;29;20190;-95
2024/04/05 23:53:03;;;;;;;7.55;2.42;;;;;;;;;;4894985;29;20350;-94
2024/04/05 23:56:08;;;;;;;6.93;2.67;;;;;;;;;;4894835;29;20197;-94
2024/04/05 23:59:13;;;;;;;7.75;2.72;;;;;;;;;;4884071;29;20323;-94
